Route Details

Aircraft Information
Group: North America Fleet
Types: B738, B752, B762, B763
Route Data
Distance: 1426nm
Duration: 4h 20m
Origin METAR: KRFD 100454Z 06005KT 6SM -DZ BR OVC005 02/01 A3023 RMK AO2 SLP244 P0000 T00220011 $
Dest. METAR: KONT 100453Z 00000KT 10SM CLR 10/06 A3012 RMK AO2 SLP201 T01000056
Freight Data
(for Dec 10, 2022)
Load Factor:
76%
Manifested Cargo: 66,301lbs
Financial History
Total Freight: 87,783lbs
Average Load: 0lbs/flt
Fuel Used: 37,660lbs
Avg. Fuel Used: 0lbs/flt
Fuel Expense: $24,377
Avg. Fuel Expense: $0
Avg. Fuel Cost: $0/lbs
Total Gross Income: $229,991
Pilot Pay: $348
Total Expenses: $47,213
Total Revenue: $156,156
Average Revenue: $0

Capitol Logistics 321




KRFD
Chicago/Rockford International Airport
Rockford, Illinois
KONT
Ontario International Airport
Ontario, California

Activity Log

Date Flight Route Aircraft Duration
09/07/2022 CPX321 Not Available B738 3h 24m
07/11/2022 CPX321 DBQ J144 DSM OVR DVC PGS MARUE JCKIE2 B738 3h 33m